Terminal Aerodrome Forecast
Issued by NWS Rapid City, SD

Home | Current Version | Previous Version | Graphics & Text | Print | Product List | Glossary On
Versions: 1 2 3 4 5 6 7 8 9 10 11 12 13 14 15 16 17
000
FTUS43 KUNR 051720
TAFRAP
TAF
KRAP 051720Z 0518/0618 01015KT P6SM SCT035 BKN090
      TEMPO 0521/0601 TSRA BKN030CB
     FM060300 01006KT P6SM OVC080
     FM061200 34012KT P6SM BKN040=

USA.gov is the U.S. government's official web portal to all federal, state and local government web resources and services.